createdAt,value
2018-08-27T00:00:45.977Z,1.30
2018-08-27T00:03:14.338Z,1.10
2018-08-27T00:05:42.722Z,1.20
2018-08-27T00:08:11.393Z,1.20
2018-08-27T00:10:39.814Z,1.50
2018-08-27T00:13:08.207Z,1.40
2018-08-27T00:15:36.600Z,1.30
2018-08-27T00:18:04.990Z,1.30
2018-08-27T00:20:33.366Z,1.20
2018-08-27T00:23:01.720Z,1.83
2018-08-27T00:25:30.154Z,1.93
2018-08-27T00:27:58.497Z,1.30
2018-08-27T00:30:26.881Z,1.23
2018-08-27T00:32:55.238Z,1.47
2018-08-27T00:35:23.617Z,1.33
2018-08-27T00:37:51.981Z,1.27
2018-08-27T00:40:20.342Z,1.50
2018-08-27T00:42:48.762Z,1.63
2018-08-27T00:45:17.126Z,1.20
2018-08-27T00:47:45.510Z,1.50
2018-08-27T00:50:13.869Z,1.00
2018-08-27T00:52:42.254Z,0.90
2018-08-27T00:55:10.634Z,1.03
2018-08-27T00:57:39.013Z,1.03
2018-08-27T01:00:07.394Z,1.10
2018-08-27T01:02:35.832Z,1.27
2018-08-27T01:05:04.210Z,1.10
2018-08-27T01:07:32.589Z,0.97
2018-08-27T01:10:00.973Z,1.00
2018-08-27T01:12:29.366Z,0.90
2018-08-27T01:14:57.728Z,1.20
2018-08-27T01:17:26.114Z,1.10
2018-08-27T01:19:54.502Z,1.83
2018-08-27T01:22:22.896Z,1.27
2018-08-27T01:24:51.274Z,1.40
2018-08-27T01:27:19.653Z,1.07
2018-08-27T01:29:48.014Z,1.50
2018-08-27T01:32:21.722Z,1.57
2018-08-27T01:34:50.082Z,1.30
2018-08-27T01:37:18.469Z,1.73
2018-08-27T01:39:46.851Z,1.63
2018-08-27T01:42:15.246Z,1.70
2018-08-27T01:44:43.616Z,1.13
2018-08-27T01:47:12.010Z,1.77
2018-08-27T01:49:40.424Z,0.97
2018-08-27T01:52:08.821Z,1.60
2018-08-27T01:54:37.185Z,1.10
2018-08-27T01:57:05.588Z,2.83
2018-08-27T01:59:33.985Z,1.67
2018-08-27T02:02:02.470Z,1.50
2018-08-27T02:04:30.846Z,1.77
2018-08-27T02:06:59.239Z,1.70
2018-08-27T02:09:27.623Z,1.53
2018-08-27T02:11:57.766Z,2.20
2018-08-27T02:14:27.252Z,1.70
2018-08-27T02:16:55.663Z,2.50
2018-08-27T02:19:24.514Z,1.97
2018-08-27T02:21:52.908Z,1.87
2018-08-27T02:24:21.317Z,1.90
2018-08-27T02:26:49.716Z,1.70
2018-08-27T02:29:18.088Z,2.50
2018-08-27T02:31:46.498Z,1.90
2018-08-27T02:34:14.871Z,2.10
2018-08-27T02:36:43.251Z,2.50
2018-08-27T02:39:13.423Z,2.40
2018-08-27T02:41:42.086Z,2.53
2018-08-27T02:44:10.811Z,1.90
2018-08-27T02:46:39.354Z,2.10
2018-08-27T02:49:07.738Z,1.50
2018-08-27T02:51:36.115Z,2.03
2018-08-27T02:54:04.520Z,2.30
2018-08-27T02:56:32.899Z,2.73
2018-08-27T02:59:01.291Z,3.27
2018-08-27T03:01:29.665Z,2.67
2018-08-27T03:03:58.071Z,2.97
2018-08-27T03:06:26.447Z,2.43
2018-08-27T03:08:54.848Z,2.60
2018-08-27T03:11:23.222Z,3.43
2018-08-27T03:13:51.606Z,3.07
2018-08-27T03:16:20.115Z,2.90
2018-08-27T03:18:48.832Z,2.60
2018-08-27T03:21:17.283Z,2.43
2018-08-27T03:23:45.678Z,2.93
2018-08-27T03:26:14.045Z,3.20
2018-08-27T03:28:42.439Z,2.90
2018-08-27T03:31:10.812Z,2.77
2018-08-27T03:33:39.211Z,3.27
2018-08-27T03:36:07.593Z,3.33
2018-08-27T03:38:35.986Z,3.40
2018-08-27T03:41:04.404Z,3.07
2018-08-27T03:43:32.798Z,3.37
2018-08-27T03:46:01.174Z,3.13
2018-08-27T03:48:29.613Z,2.50
2018-08-27T03:50:57.970Z,2.80
2018-08-27T03:53:27.146Z,3.23
2018-08-27T03:55:55.513Z,3.20
2018-08-27T03:58:23.903Z,3.13
2018-08-27T04:00:52.270Z,3.20
2018-08-27T04:03:20.654Z,3.33
2018-08-27T04:05:49.235Z,3.17
2018-08-27T04:08:17.632Z,3.47
2018-08-27T04:10:45.998Z,3.47
2018-08-27T04:13:14.392Z,3.37
2018-08-27T04:15:42.772Z,3.83
2018-08-27T04:18:11.190Z,4.40
2018-08-27T04:20:39.563Z,3.77
2018-08-27T04:23:07.959Z,4.27
2018-08-27T04:25:36.339Z,3.50
2018-08-27T04:28:04.781Z,3.50
2018-08-27T04:30:33.243Z,3.10
2018-08-27T04:33:01.635Z,5.20
2018-08-27T04:35:30.011Z,3.70
2018-08-27T04:37:58.395Z,3.33
2018-08-27T04:40:26.786Z,3.90
2018-08-27T04:42:55.199Z,3.53
2018-08-27T04:45:23.588Z,3.30
2018-08-27T04:47:51.964Z,3.33
2018-08-27T04:50:20.346Z,4.07
2018-08-27T04:52:48.710Z,3.60
2018-08-27T04:55:17.093Z,2.80
2018-08-27T04:57:45.459Z,3.30
2018-08-27T05:00:22.957Z,3.37
2018-08-27T05:02:51.327Z,3.53
2018-08-27T05:05:19.732Z,3.40
2018-08-27T05:07:48.120Z,3.83
2018-08-27T05:10:16.535Z,3.90
2018-08-27T05:12:44.908Z,4.20
2018-08-27T05:15:13.308Z,4.00
2018-08-27T05:17:41.687Z,3.73
2018-08-27T05:20:10.271Z,2.90
2018-08-27T05:22:38.643Z,2.73
2018-08-27T05:25:07.039Z,3.57
2018-08-27T05:27:35.419Z,2.40
2018-08-27T05:30:03.838Z,2.73
2018-08-27T05:32:32.214Z,2.47
2018-08-27T05:35:00.614Z,2.03
2018-08-27T05:37:28.991Z,2.33
2018-08-27T05:39:57.387Z,2.20
2018-08-27T05:42:25.768Z,2.10
2018-08-27T05:44:54.171Z,2.33
2018-08-27T05:47:22.547Z,2.30
2018-08-27T05:49:51.194Z,2.20
2018-08-27T05:52:19.619Z,1.83
2018-08-27T05:54:48.096Z,1.90
2018-08-27T05:57:16.467Z,2.30
2018-08-27T05:59:44.864Z,1.90
2018-08-27T06:02:13.235Z,1.93
2018-08-27T06:04:41.631Z,1.83
2018-08-27T06:07:09.999Z,1.90
2018-08-27T06:09:38.440Z,1.30
2018-08-27T06:12:07.051Z,2.00
2018-08-27T06:14:35.443Z,1.93
2018-08-27T06:17:04.216Z,2.17
2018-08-27T06:19:32.619Z,1.60
2018-08-27T06:22:01.052Z,1.70
2018-08-27T06:24:29.415Z,1.30
2018-08-27T06:26:57.786Z,1.90
2018-08-27T06:29:26.191Z,2.30
2018-08-27T06:31:54.566Z,1.80
2018-08-27T06:34:23.048Z,1.70
2018-08-27T06:36:51.413Z,1.50
2018-08-27T06:39:19.818Z,1.67
2018-08-27T06:41:48.186Z,1.40
2018-08-27T06:44:16.563Z,1.43
2018-08-27T06:46:44.956Z,1.77
2018-08-27T06:49:13.331Z,1.30
2018-08-27T06:51:41.736Z,1.93
2018-08-27T06:54:10.115Z,1.40
2018-08-27T06:56:38.576Z,1.60
2018-08-27T06:59:06.926Z,1.80
2018-08-27T07:01:35.321Z,1.70
2018-08-27T07:04:04.173Z,1.77
2018-08-27T07:06:32.765Z,1.67
2018-08-27T07:09:01.140Z,1.40
2018-08-27T07:11:29.534Z,1.30
2018-08-27T07:13:57.906Z,2.33
2018-08-27T07:16:26.307Z,1.53
2018-08-27T07:18:54.703Z,1.50
2018-08-27T07:21:23.099Z,1.27
2018-08-27T07:23:51.473Z,1.80
2018-08-27T07:26:19.939Z,1.43
2018-08-27T07:28:48.322Z,1.47
2018-08-27T07:31:16.719Z,2.17
2018-08-27T07:33:45.095Z,1.80
2018-08-27T07:36:13.563Z,1.50
2018-08-27T07:38:41.894Z,1.47
2018-08-27T07:41:10.295Z,1.70
2018-08-27T07:43:38.771Z,1.57
2018-08-27T07:46:07.114Z,1.13
2018-08-27T07:48:35.495Z,1.77
2018-08-27T07:51:03.929Z,1.50
2018-08-27T07:53:32.292Z,1.43
2018-08-27T07:56:00.688Z,1.40
2018-08-27T07:58:29.084Z,1.37
2018-08-27T08:00:57.474Z,1.80
2018-08-27T08:03:25.860Z,1.37
2018-08-27T08:05:54.250Z,1.40
2018-08-27T08:08:22.626Z,1.60
2018-08-27T08:10:51.023Z,2.57
2018-08-27T08:13:19.400Z,1.47
2018-08-27T08:15:47.798Z,1.43
2018-08-27T08:18:18.068Z,1.50
2018-08-27T08:20:46.987Z,1.80
2018-08-27T08:23:16.078Z,1.40
2018-08-27T08:25:44.487Z,1.60
2018-08-27T08:28:12.867Z,2.27
2018-08-27T08:30:41.263Z,1.53
2018-08-27T08:33:09.675Z,2.23
2018-08-27T08:35:38.076Z,1.50
2018-08-27T08:38:06.467Z,1.43
2018-08-27T08:40:34.864Z,1.87
2018-08-27T08:43:03.230Z,1.57
2018-08-27T08:45:31.610Z,1.37
2018-08-27T08:48:00.023Z,1.70
2018-08-27T08:50:28.390Z,1.60
2018-08-27T08:52:56.786Z,1.33
2018-08-27T08:55:25.503Z,1.30
2018-08-27T08:57:53.908Z,1.40
2018-08-27T09:00:22.280Z,1.57
2018-08-27T09:02:50.692Z,1.70
2018-08-27T09:05:19.095Z,1.23
2018-08-27T09:07:47.499Z,2.17
2018-08-27T09:10:15.941Z,1.80
2018-08-27T09:12:44.339Z,1.50
2018-08-27T09:15:12.713Z,1.80
2018-08-27T09:17:41.137Z,1.97
2018-08-27T09:20:10.735Z,2.27
2018-08-27T09:22:39.446Z,1.83
2018-08-27T09:25:08.002Z,1.80
2018-08-27T09:27:36.720Z,1.43
2018-08-27T09:30:06.142Z,1.60
2018-08-27T09:32:34.542Z,1.90
2018-08-27T09:35:03.044Z,1.63
2018-08-27T09:37:31.718Z,1.30
2018-08-27T09:40:00.068Z,1.63
2018-08-27T09:42:28.470Z,2.30
2018-08-27T09:44:56.841Z,2.07
2018-08-27T09:47:25.243Z,2.60
2018-08-27T09:49:53.625Z,2.10
2018-08-27T09:52:22.242Z,1.80
2018-08-27T09:54:50.619Z,1.47
2018-08-27T09:57:19.018Z,2.03
2018-08-27T09:59:47.403Z,2.00
2018-08-27T10:02:15.799Z,1.97
2018-08-27T10:04:44.175Z,1.50
2018-08-27T10:07:12.907Z,1.80
2018-08-27T10:09:41.288Z,1.60
2018-08-27T10:12:09.699Z,2.50
2018-08-27T10:14:38.075Z,1.87
2018-08-27T10:17:06.507Z,2.27
2018-08-27T10:19:34.903Z,1.90
2018-08-27T10:22:03.347Z,1.73
2018-08-27T10:24:31.771Z,2.03
2018-08-27T10:27:00.707Z,1.40
2018-08-27T10:29:29.079Z,1.97
2018-08-27T10:31:57.465Z,2.07
2018-08-27T10:34:25.844Z,1.50
2018-08-27T10:36:54.248Z,2.10
2018-08-27T10:39:22.619Z,2.07
2018-08-27T10:41:51.027Z,1.60
2018-08-27T10:44:19.401Z,1.83
2018-08-27T10:46:47.771Z,2.03
2018-08-27T10:49:16.186Z,1.40
2018-08-27T10:51:44.554Z,1.40
2018-08-27T10:54:12.965Z,2.00
2018-08-27T10:56:41.404Z,2.00
2018-08-27T10:59:09.800Z,1.53
2018-08-27T11:01:38.196Z,2.10
2018-08-27T11:04:06.586Z,1.70
2018-08-27T11:06:34.955Z,1.77
2018-08-27T11:09:03.521Z,1.40
2018-08-27T11:11:31.894Z,1.73
2018-08-27T11:14:00.289Z,1.30
2018-08-27T11:16:28.663Z,1.83
2018-08-27T11:18:57.074Z,2.20
2018-08-27T11:21:25.456Z,1.60
2018-08-27T11:23:53.865Z,2.00
2018-08-27T11:26:22.248Z,1.57
2018-08-27T11:28:50.666Z,2.20
2018-08-27T11:31:19.047Z,1.97
2018-08-27T11:33:47.444Z,1.73
2018-08-27T11:36:15.810Z,2.30
2018-08-27T11:38:44.215Z,2.30
2018-08-27T11:41:12.598Z,2.57
2018-08-27T11:43:41.060Z,2.23
2018-08-27T11:46:09.423Z,2.60
2018-08-27T11:48:37.810Z,2.43
2018-08-27T11:51:06.250Z,2.30
2018-08-27T11:53:34.642Z,2.97
2018-08-27T11:56:03.024Z,2.10
2018-08-27T11:58:31.564Z,1.90
2018-08-27T12:01:06.832Z,1.60
2018-08-27T12:03:35.211Z,1.97
2018-08-27T12:06:03.586Z,1.90
2018-08-27T12:08:31.992Z,2.23
2018-08-27T12:11:00.407Z,2.00
2018-08-27T12:13:28.794Z,1.67
2018-08-27T12:15:57.252Z,1.83
2018-08-27T12:18:25.706Z,2.00
2018-08-27T12:20:54.074Z,2.10
2018-08-27T12:23:22.465Z,1.80
2018-08-27T12:25:50.829Z,2.30
2018-08-27T12:28:19.225Z,2.07
2018-08-27T12:30:47.694Z,1.90
2018-08-27T12:33:16.085Z,2.30
2018-08-27T12:35:44.586Z,2.83
2018-08-27T12:38:12.978Z,2.77
2018-08-27T12:40:41.456Z,2.00
2018-08-27T12:43:09.782Z,1.97
2018-08-27T12:45:38.184Z,2.60
2018-08-27T12:48:06.560Z,2.30
2018-08-27T12:50:34.959Z,2.63
2018-08-27T12:53:03.334Z,2.80
2018-08-27T12:55:31.735Z,3.00
2018-08-27T12:58:00.187Z,3.00
2018-08-27T13:00:28.579Z,2.87
2018-08-27T13:02:56.955Z,2.57
2018-08-27T13:05:25.343Z,3.20
2018-08-27T13:07:53.832Z,2.70
2018-08-27T13:10:22.140Z,2.97
2018-08-27T13:12:50.595Z,3.03
2018-08-27T13:15:18.951Z,2.90
2018-08-27T13:17:47.334Z,2.60
2018-08-27T13:20:15.758Z,3.23
2018-08-27T13:22:44.147Z,4.67
2018-08-27T13:25:12.552Z,2.53
2018-08-27T13:27:40.931Z,2.80
2018-08-27T13:30:09.357Z,2.63
2018-08-27T13:32:37.751Z,2.60
2018-08-27T13:35:06.172Z,3.40
2018-08-27T13:37:34.666Z,2.80
2018-08-27T13:40:03.125Z,3.37
2018-08-27T13:42:31.483Z,2.73
2018-08-27T13:44:59.895Z,2.70
2018-08-27T13:47:28.292Z,3.57
2018-08-27T13:49:56.707Z,2.90
2018-08-27T13:52:25.074Z,2.90
2018-08-27T13:54:53.472Z,3.17
2018-08-27T13:57:21.848Z,2.60
2018-08-27T13:59:50.281Z,3.07
2018-08-27T14:02:18.655Z,2.83
2018-08-27T14:04:47.148Z,2.63
2018-08-27T14:07:15.567Z,3.00
2018-08-27T14:09:43.968Z,2.50
2018-08-27T14:12:12.367Z,2.23
2018-08-27T14:14:40.822Z,2.47
2018-08-27T14:17:09.198Z,2.37
2018-08-27T14:19:37.637Z,2.50
2018-08-27T14:22:06.013Z,2.90
2018-08-27T14:24:34.405Z,2.43
2018-08-27T14:27:02.770Z,3.07
2018-08-27T14:29:31.167Z,2.17
2018-08-27T14:31:59.547Z,3.07
2018-08-27T14:34:28.002Z,3.40
2018-08-27T14:36:56.387Z,2.90
2018-08-27T14:39:24.765Z,2.73
2018-08-27T14:41:53.171Z,2.63
2018-08-27T14:44:21.562Z,2.77
2018-08-27T14:46:49.959Z,2.67
2018-08-27T14:49:18.433Z,2.90
2018-08-27T14:51:46.826Z,2.57
2018-08-27T14:54:15.199Z,3.10
2018-08-27T14:56:43.614Z,3.53
2018-08-27T14:59:12.394Z,3.10
2018-08-27T15:01:40.795Z,2.60
2018-08-27T15:04:09.172Z,3.00
2018-08-27T15:06:37.564Z,3.03
2018-08-27T15:09:06.986Z,3.00
2018-08-27T15:11:35.392Z,2.73
2018-08-27T15:14:03.763Z,2.30
2018-08-27T15:16:32.189Z,3.00
2018-08-27T15:19:00.579Z,2.80
2018-08-27T15:21:28.979Z,3.40
2018-08-27T15:23:57.455Z,3.17
2018-08-27T15:26:25.850Z,2.97
2018-08-27T15:28:54.228Z,3.33
2018-08-27T15:31:22.631Z,2.70
2018-08-27T15:33:51.007Z,2.37
2018-08-27T15:36:19.405Z,2.50
2018-08-27T15:38:47.799Z,3.13
2018-08-27T15:41:16.548Z,3.30
2018-08-27T15:43:44.998Z,3.20
2018-08-27T15:46:18.711Z,3.10
2018-08-27T15:48:47.091Z,2.93
2018-08-27T15:51:15.533Z,2.67
2018-08-27T15:53:43.967Z,3.17
2018-08-27T15:56:12.383Z,3.80
2018-08-27T15:58:40.812Z,2.73
2018-08-27T16:01:12.488Z,3.10
2018-08-27T16:03:41.457Z,3.93
2018-08-27T16:06:10.780Z,3.03
2018-08-27T16:08:39.169Z,3.27
2018-08-27T16:11:07.574Z,3.43
2018-08-27T16:13:36.411Z,3.30
2018-08-27T16:16:04.935Z,3.30
2018-08-27T16:18:33.326Z,2.63
2018-08-27T16:21:01.755Z,2.97
2018-08-27T16:23:30.260Z,2.97
2018-08-27T16:25:58.751Z,3.00
2018-08-27T16:28:27.143Z,2.73
2018-08-27T16:30:55.547Z,2.90
2018-08-27T16:33:23.927Z,2.80
2018-08-27T16:35:52.328Z,3.20
2018-08-27T16:38:20.818Z,2.90
2018-08-27T16:40:49.234Z,3.07
2018-08-27T16:43:17.729Z,2.47
2018-08-27T16:45:46.151Z,2.63
2018-08-27T16:48:14.539Z,2.57
2018-08-27T16:50:42.915Z,2.70
2018-08-27T16:53:11.309Z,3.87
2018-08-27T16:55:39.678Z,3.20
2018-08-27T16:58:08.084Z,2.43
2018-08-27T17:00:36.458Z,15.50
2018-08-27T17:03:04.912Z,2.57
2018-08-27T17:05:33.291Z,2.90
2018-08-27T17:08:01.693Z,3.63
2018-08-27T17:10:30.169Z,2.97
2018-08-27T17:12:58.550Z,2.70
2018-08-27T17:15:26.935Z,3.10
2018-08-27T17:17:55.362Z,3.00
2018-08-27T17:20:23.729Z,2.87
2018-08-27T17:22:52.126Z,2.77
2018-08-27T17:25:20.510Z,2.03
2018-08-27T17:27:48.912Z,2.83
2018-08-27T17:30:17.291Z,2.70
2018-08-27T17:32:45.728Z,2.30
2018-08-27T17:35:14.114Z,2.60
2018-08-27T17:37:42.529Z,3.20
2018-08-27T17:40:11.002Z,3.07
2018-08-27T17:42:39.399Z,2.90
2018-08-27T17:45:08.078Z,3.17
2018-08-27T17:47:36.487Z,5.03
2018-08-27T17:50:04.893Z,3.97
2018-08-27T17:52:33.298Z,3.20
2018-08-27T17:55:01.674Z,3.80
2018-08-27T17:57:30.079Z,3.50
2018-08-27T17:59:58.482Z,3.00
2018-08-27T18:02:26.962Z,3.33
2018-08-27T18:04:55.423Z,3.90
2018-08-27T18:07:23.778Z,3.17
2018-08-27T18:09:52.163Z,4.33
2018-08-27T18:12:20.601Z,3.47
2018-08-27T18:14:48.999Z,4.17
2018-08-27T18:17:17.489Z,4.07
2018-08-27T18:19:46.012Z,3.57
2018-08-27T18:22:14.416Z,3.80
2018-08-27T18:24:42.795Z,3.73
2018-08-27T18:27:11.199Z,3.20
2018-08-27T18:29:39.576Z,3.93
2018-08-27T18:32:07.975Z,3.20
2018-08-27T18:34:36.388Z,3.93
2018-08-27T18:37:04.779Z,3.60
2018-08-27T18:39:33.146Z,3.97
2018-08-27T18:42:01.552Z,3.53
2018-08-27T18:44:29.970Z,3.50
2018-08-27T18:46:58.347Z,3.90
2018-08-27T18:49:26.778Z,5.03
2018-08-27T18:51:55.161Z,3.87
2018-08-27T18:54:23.563Z,4.80
2018-08-27T18:56:51.946Z,5.03
2018-08-27T18:59:20.379Z,4.40
2018-08-27T19:01:48.770Z,5.10
2018-08-27T19:04:17.172Z,4.50
2018-08-27T19:06:45.660Z,4.70
2018-08-27T19:09:13.971Z,5.13
2018-08-27T19:11:42.379Z,4.57
2018-08-27T19:14:10.774Z,5.77
2018-08-27T19:16:39.151Z,5.57
2018-08-27T19:19:07.610Z,5.80
2018-08-27T19:21:35.987Z,8.03
2018-08-27T19:24:04.408Z,6.93
2018-08-27T19:26:32.808Z,6.60
2018-08-27T19:29:01.303Z,5.70
2018-08-27T19:31:29.615Z,7.73
2018-08-27T19:33:58.019Z,6.43
2018-08-27T19:36:26.487Z,5.50
2018-08-27T19:38:54.836Z,5.00
2018-08-27T19:41:23.218Z,5.17
2018-08-27T19:43:51.615Z,5.33
2018-08-27T19:46:20.081Z,6.73
2018-08-27T19:48:48.428Z,5.60
2018-08-27T19:51:16.846Z,5.90
2018-08-27T19:53:45.269Z,5.27
2018-08-27T19:56:13.648Z,4.40
2018-08-27T19:58:42.067Z,6.13
2018-08-27T20:01:10.535Z,5.13
2018-08-27T20:03:38.947Z,5.67
2018-08-27T20:06:07.342Z,6.43
2018-08-27T20:08:35.784Z,5.90
2018-08-27T20:11:04.286Z,5.63
2018-08-27T20:13:32.691Z,5.43
2018-08-27T20:16:01.071Z,6.00
2018-08-27T20:18:29.491Z,5.37
2018-08-27T20:20:57.872Z,5.27
2018-08-27T20:23:26.276Z,6.33
2018-08-27T20:25:54.730Z,5.83
2018-08-27T20:28:23.074Z,6.13
2018-08-27T20:30:51.447Z,7.20
2018-08-27T20:33:19.834Z,5.73
2018-08-27T20:35:48.216Z,5.70
2018-08-27T20:38:16.623Z,5.90
2018-08-27T20:40:44.990Z,5.77
2018-08-27T20:43:13.555Z,5.80
2018-08-27T20:45:42.169Z,5.70
2018-08-27T20:48:10.572Z,5.23
2018-08-27T20:50:39.115Z,5.90
2018-08-27T20:53:07.487Z,5.43
2018-08-27T20:55:35.883Z,6.07
2018-08-27T20:58:04.262Z,6.10
2018-08-27T21:00:32.667Z,6.10
2018-08-27T21:03:01.066Z,5.83
2018-08-27T21:05:29.473Z,5.90
2018-08-27T21:07:59.648Z,6.40
2018-08-27T21:10:28.088Z,6.00
2018-08-27T21:12:56.471Z,6.47
2018-08-27T21:15:24.866Z,6.57
2018-08-27T21:17:54.138Z,6.37
2018-08-27T21:20:23.461Z,6.23
2018-08-27T21:22:51.871Z,6.87
2018-08-27T21:25:20.418Z,6.30
2018-08-27T21:27:49.873Z,6.80
2018-08-27T21:30:19.638Z,6.73
2018-08-27T21:32:48.014Z,6.97
2018-08-27T21:35:16.411Z,7.77
2018-08-27T21:37:44.844Z,7.37
2018-08-27T21:40:13.264Z,6.97
2018-08-27T21:42:41.659Z,6.87
2018-08-27T21:45:10.053Z,7.20
2018-08-27T21:47:38.432Z,7.60
2018-08-27T21:50:06.846Z,7.00
2018-08-27T21:52:35.228Z,7.30
2018-08-27T21:55:03.635Z,7.10
2018-08-27T21:57:32.018Z,7.90
2018-08-27T22:00:00.420Z,8.07
2018-08-27T22:02:33.997Z,7.90
2018-08-27T22:05:02.399Z,8.37
2018-08-27T22:07:30.774Z,8.27
2018-08-27T22:09:59.171Z,6.90
2018-08-27T22:12:27.545Z,7.70
2018-08-27T22:14:55.938Z,7.90
2018-08-27T22:17:24.318Z,8.00
2018-08-27T22:19:52.740Z,7.83
2018-08-27T22:22:21.109Z,8.17
2018-08-27T22:24:49.505Z,8.93
2018-08-27T22:27:17.882Z,8.10
2018-08-27T22:29:46.290Z,8.50
2018-08-27T22:32:14.662Z,8.07
2018-08-27T22:34:43.053Z,7.37
2018-08-27T22:37:11.527Z,8.93
2018-08-27T22:39:39.917Z,9.23
2018-08-27T22:42:08.302Z,9.00
2018-08-27T22:44:36.697Z,10.13
2018-08-27T22:47:05.087Z,9.50
2018-08-27T22:49:33.469Z,9.43
2018-08-27T22:52:01.891Z,9.27
2018-08-27T22:54:30.269Z,9.20
2018-08-27T22:56:58.661Z,8.87
2018-08-27T22:59:27.040Z,10.67
2018-08-27T23:01:55.438Z,9.10
2018-08-27T23:04:29.186Z,9.50
2018-08-27T23:06:57.898Z,9.37
2018-08-27T23:09:26.299Z,8.43
2018-08-27T23:11:54.698Z,9.10
2018-08-27T23:14:23.071Z,7.20
2018-08-27T23:16:51.466Z,9.57
2018-08-27T23:19:19.875Z,9.00
2018-08-27T23:21:48.267Z,8.07
2018-08-27T23:24:16.646Z,9.20
2018-08-27T23:26:45.043Z,8.13
2018-08-27T23:29:13.422Z,8.20
2018-08-27T23:31:41.917Z,8.20
2018-08-27T23:34:10.298Z,9.70
2018-08-27T23:36:38.711Z,10.23
2018-08-27T23:39:07.427Z,8.90
2018-08-27T23:41:35.839Z,10.47
2018-08-27T23:44:04.215Z,9.87
2018-08-27T23:46:32.619Z,9.03
2018-08-27T23:49:01.003Z,8.87
2018-08-27T23:51:29.411Z,9.87
2018-08-27T23:53:57.795Z,9.10
2018-08-27T23:56:26.203Z,8.90
2018-08-27T23:58:54.574Z,8.50
